sensor_id;sensor_type;location;lat;lon;timestamp;pressure;altitude;pressure_sealevel;temperature;humidity
11523;BME280;40093;43.224;27.910;2023-03-03T00:01:32;100884.69;;;7.57;100.00
11523;BME280;40093;43.224;27.910;2023-03-03T00:04:00;100856.47;;;7.41;100.00
11523;BME280;40093;43.224;27.910;2023-03-03T00:06:27;100882.63;;;7.66;100.00
11523;BME280;40093;43.224;27.910;2023-03-03T00:08:54;100877.59;;;7.68;100.00
11523;BME280;40093;43.224;27.910;2023-03-03T00:11:21;100878.16;;;7.73;100.00
11523;BME280;40093;43.224;27.910;2023-03-03T00:13:50;100874.25;;;7.74;100.00
11523;BME280;40093;43.224;27.910;2023-03-03T00:16:23;100870.47;;;7.79;100.00
11523;BME280;40093;43.224;27.910;2023-03-03T00:18:52;100867.41;;;7.80;100.00
11523;BME280;40093;43.224;27.910;2023-03-03T00:21:28;100869.88;;;7.85;100.00
11523;BME280;40093;43.224;27.910;2023-03-03T00:24:10;100872.28;;;7.87;100.00
11523;BME280;40093;43.224;27.910;2023-03-03T00:26:41;100867.94;;;7.86;100.00
11523;BME280;40093;43.224;27.910;2023-03-03T00:29:28;100868.50;;;7.91;100.00
11523;BME280;40093;43.224;27.910;2023-03-03T00:34:43;100855.34;;;7.97;100.00
11523;BME280;40093;43.224;27.910;2023-03-03T00:37:21;100860.81;;;7.97;100.00
11523;BME280;40093;43.224;27.910;2023-03-03T00:39:49;100858.63;;;8.02;100.00
11523;BME280;40093;43.224;27.910;2023-03-03T00:42:17;100852.16;;;7.95;100.00
11523;BME280;40093;43.224;27.910;2023-03-03T00:44:45;100842.34;;;7.94;100.00
11523;BME280;40093;43.224;27.910;2023-03-03T00:47:27;100840.50;;;7.98;100.00
11523;BME280;40093;43.224;27.910;2023-03-03T00:50:17;100843.78;;;8.03;100.00
11523;BME280;40093;43.224;27.910;2023-03-03T00:52:59;100841.56;;;8.09;100.00
11523;BME280;40093;43.224;27.910;2023-03-03T00:55:26;100834.59;;;8.11;100.00
11523;BME280;40093;43.224;27.910;2023-03-03T00:57:53;100832.53;;;8.20;100.00
11523;BME280;40093;43.224;27.910;2023-03-03T01:00:20;100834.66;;;8.27;100.00
11523;BME280;40093;43.224;27.910;2023-03-03T01:02:47;100832.59;;;8.24;100.00
11523;BME280;40093;43.224;27.910;2023-03-03T01:05:16;100823.41;;;8.32;100.00
11523;BME280;40093;43.224;27.910;2023-03-03T01:07:44;100827.41;;;8.34;100.00
11523;BME280;40093;43.224;27.910;2023-03-03T01:10:11;100820.44;;;8.37;100.00
11523;BME280;40093;43.224;27.910;2023-03-03T01:12:38;100818.03;;;8.35;100.00
11523;BME280;40093;43.224;27.910;2023-03-03T01:15:07;100814.03;;;8.33;100.00
11523;BME280;40093;43.224;27.910;2023-03-03T01:17:34;100814.56;;;8.23;100.00
11523;BME280;40093;43.224;27.910;2023-03-03T01:20:02;100810.81;;;8.15;100.00
11523;BME280;40093;43.224;27.910;2023-03-03T01:22:31;100824.66;;;8.19;100.00
11523;BME280;40093;43.224;27.910;2023-03-03T01:24:58;100811.16;;;8.14;100.00
11523;BME280;40093;43.224;27.910;2023-03-03T01:27:25;100813.47;;;8.12;100.00
11523;BME280;40093;43.224;27.910;2023-03-03T01:29:53;100806.13;;;8.16;100.00
11523;BME280;40093;43.224;27.910;2023-03-03T01:32:20;100809.56;;;8.13;100.00
11523;BME280;40093;43.224;27.910;2023-03-03T01:34:47;100805.06;;;8.05;100.00
11523;BME280;40093;43.224;27.910;2023-03-03T01:37:14;100807.81;;;8.05;100.00
11523;BME280;40093;43.224;27.910;2023-03-03T01:39:47;100798.22;;;7.99;100.00
11523;BME280;40093;43.224;27.910;2023-03-03T01:42:14;100792.56;;;7.92;100.00
11523;BME280;40093;43.224;27.910;2023-03-03T01:44:41;100795.50;;;7.99;100.00
11523;BME280;40093;43.224;27.910;2023-03-03T01:47:10;100789.69;;;8.00;100.00
11523;BME280;40093;43.224;27.910;2023-03-03T01:49:41;100788.16;;;8.03;100.00
11523;BME280;40093;43.224;27.910;2023-03-03T01:52:14;100787.47;;;8.06;100.00
11523;BME280;40093;43.224;27.910;2023-03-03T01:54:49;100791.78;;;7.91;100.00
11523;BME280;40093;43.224;27.910;2023-03-03T01:57:22;100784.50;;;7.83;100.00
11523;BME280;40093;43.224;27.910;2023-03-03T01:59:51;100787.59;;;7.82;100.00
11523;BME280;40093;43.224;27.910;2023-03-03T02:02:19;100792.47;;;7.88;100.00
11523;BME280;40093;43.224;27.910;2023-03-03T02:04:46;100789.38;;;7.90;100.00
11523;BME280;40093;43.224;27.910;2023-03-03T02:07:15;100794.16;;;7.93;100.00
11523;BME280;40093;43.224;27.910;2023-03-03T02:09:50;100782.50;;;7.96;100.00
11523;BME280;40093;43.224;27.910;2023-03-03T02:12:23;100787.03;;;8.04;100.00
11523;BME280;40093;43.224;27.910;2023-03-03T02:14:51;100797.19;;;8.03;100.00
11523;BME280;40093;43.224;27.910;2023-03-03T02:17:18;100789.38;;;7.90;100.00
11523;BME280;40093;43.224;27.910;2023-03-03T02:19:51;100797.34;;;7.95;100.00
11523;BME280;40093;43.224;27.910;2023-03-03T02:22:24;100787.72;;;8.01;100.00
11523;BME280;40093;43.224;27.910;2023-03-03T02:24:56;100784.97;;;8.01;100.00
11523;BME280;40093;43.224;27.910;2023-03-03T02:27:29;100782.00;;;8.06;100.00
11523;BME280;40093;43.224;27.910;2023-03-03T02:29:56;100753.81;;;7.78;100.00
11523;BME280;40093;43.224;27.910;2023-03-03T02:32:23;100776.94;;;7.92;100.00
11523;BME280;40093;43.224;27.910;2023-03-03T02:34:51;100780.91;;;7.95;100.00
11523;BME280;40093;43.224;27.910;2023-03-03T02:37:19;100788.63;;;8.05;100.00
11523;BME280;40093;43.224;27.910;2023-03-03T02:39:45;100793.13;;;8.13;100.00
11523;BME280;40093;43.224;27.910;2023-03-03T02:42:17;100779.16;;;8.18;100.00
11523;BME280;40093;43.224;27.910;2023-03-03T02:44:46;100782.09;;;8.25;100.00
11523;BME280;40093;43.224;27.910;2023-03-03T02:47:13;100788.72;;;8.24;100.00
11523;BME280;40093;43.224;27.910;2023-03-03T02:49:40;100787.59;;;8.25;100.00
11523;BME280;40093;43.224;27.910;2023-03-03T02:52:10;100780.06;;;8.22;100.00
11523;BME280;40093;43.224;27.910;2023-03-03T02:54:39;100780.78;;;8.19;100.00
11523;BME280;40093;43.224;27.910;2023-03-03T02:57:06;100789.88;;;8.23;100.00
11523;BME280;40093;43.224;27.910;2023-03-03T02:59:33;100783.25;;;8.24;100.00
11523;BME280;40093;43.224;27.910;2023-03-03T03:02:01;100772.22;;;8.20;100.00
11523;BME280;40093;43.224;27.910;2023-03-03T03:04:28;100767.75;;;8.16;100.00
11523;BME280;40093;43.224;27.910;2023-03-03T03:06:55;100774.03;;;8.16;100.00
11523;BME280;40093;43.224;27.910;2023-03-03T03:09:23;100778.34;;;8.17;100.00
11523;BME280;40093;43.224;27.910;2023-03-03T03:11:50;100768.44;;;8.13;100.00
11523;BME280;40093;43.224;27.910;2023-03-03T03:14:17;100767.75;;;8.16;100.00
11523;BME280;40093;43.224;27.910;2023-03-03T03:16:44;100769.09;;;8.22;100.00
11523;BME280;40093;43.224;27.910;2023-03-03T03:19:12;100767.69;;;8.28;100.00
11523;BME280;40093;43.224;27.910;2023-03-03T03:21:39;100768.94;;;8.30;100.00
11523;BME280;40093;43.224;27.910;2023-03-03T03:24:06;100766.28;;;8.34;100.00
11523;BME280;40093;43.224;27.910;2023-03-03T03:26:34;100760.44;;;8.35;100.00
11523;BME280;40093;43.224;27.910;2023-03-03T03:29:00;100765.59;;;8.37;100.00
11523;BME280;40093;43.224;27.910;2023-03-03T03:31:27;100768.84;;;8.27;100.00
11523;BME280;40093;43.224;27.910;2023-03-03T03:33:54;100765.31;;;8.26;100.00
11523;BME280;40093;43.224;27.910;2023-03-03T03:36:22;100765.41;;;8.30;100.00
11523;BME280;40093;43.224;27.910;2023-03-03T03:38:50;100754.44;;;8.30;100.00
11523;BME280;40093;43.224;27.910;2023-03-03T03:41:16;100755.16;;;8.27;100.00
11523;BME280;40093;43.224;27.910;2023-03-03T03:43:43;100756.84;;;8.31;100.00
11523;BME280;40093;43.224;27.910;2023-03-03T03:46:10;100753.03;;;8.36;100.00
11523;BME280;40093;43.224;27.910;2023-03-03T03:48:37;100751.88;;;8.37;100.00
11523;BME280;40093;43.224;27.910;2023-03-03T03:51:04;100756.31;;;8.41;100.00
11523;BME280;40093;43.224;27.910;2023-03-03T03:53:32;100754.09;;;8.47;100.00
11523;BME280;40093;43.224;27.910;2023-03-03T03:55:59;100755.72;;;8.51;100.00
11523;BME280;40093;43.224;27.910;2023-03-03T03:58:26;100746.00;;;8.54;100.00
11523;BME280;40093;43.224;27.910;2023-03-03T04:00:53;100745.56;;;8.52;100.00
11523;BME280;40093;43.224;27.910;2023-03-03T04:03:20;100745.22;;;8.53;100.00
11523;BME280;40093;43.224;27.910;2023-03-03T04:05:47;100742.47;;;8.53;100.00
11523;BME280;40093;43.224;27.910;2023-03-03T04:08:15;100747.16;;;8.53;100.00
11523;BME280;40093;43.224;27.910;2023-03-03T04:10:43;100736.38;;;8.29;100.00
11523;BME280;40093;43.224;27.910;2023-03-03T04:13:10;100743.47;;;8.30;100.00
11523;BME280;40093;43.224;27.910;2023-03-03T04:15:37;100734.09;;;8.31;100.00
11523;BME280;40093;43.224;27.910;2023-03-03T04:18:04;100736.66;;;8.24;100.00
11523;BME280;40093;43.224;27.910;2023-03-03T04:20:31;100737.59;;;8.16;100.00
11523;BME280;40093;43.224;27.910;2023-03-03T04:22:58;100735.22;;;8.14;100.00
11523;BME280;40093;43.224;27.910;2023-03-03T04:25:25;100729.00;;;7.86;100.00
11523;BME280;40093;43.224;27.910;2023-03-03T04:27:53;100739.69;;;7.76;100.00
11523;BME280;40093;43.224;27.910;2023-03-03T04:30:20;100731.53;;;7.64;100.00
11523;BME280;40093;43.224;27.910;2023-03-03T04:32:47;100728.38;;;7.62;100.00
11523;BME280;40093;43.224;27.910;2023-03-03T04:35:14;100728.44;;;7.65;100.00
11523;BME280;40093;43.224;27.910;2023-03-03T04:37:41;100730.22;;;7.73;100.00
11523;BME280;40093;43.224;27.910;2023-03-03T04:40:09;100729.06;;;7.74;100.00
11523;BME280;40093;43.224;27.910;2023-03-03T04:42:36;100726.44;;;7.78;100.00
11523;BME280;40093;43.224;27.910;2023-03-03T04:45:06;100730.69;;;7.91;100.00
11523;BME280;40093;43.224;27.910;2023-03-03T04:47:33;100736.78;;;8.00;100.00
11523;BME280;40093;43.224;27.910;2023-03-03T04:50:00;100734.34;;;7.95;100.00
11523;BME280;40093;43.224;27.910;2023-03-03T04:52:28;100732.03;;;7.97;100.00
11523;BME280;40093;43.224;27.910;2023-03-03T04:54:55;100737.50;;;7.97;100.00
11523;BME280;40093;43.224;27.910;2023-03-03T04:57:22;100724.31;;;7.87;100.00
11523;BME280;40093;43.224;27.910;2023-03-03T04:59:49;100728.84;;;7.95;100.00
11523;BME280;40093;43.224;27.910;2023-03-03T05:02:18;100728.75;;;8.07;100.00
11523;BME280;40093;43.224;27.910;2023-03-03T05:04:45;100738.06;;;8.18;100.00
11523;BME280;40093;43.224;27.910;2023-03-03T05:07:12;100744.88;;;8.24;100.00
11523;BME280;40093;43.224;27.910;2023-03-03T05:09:39;100735.88;;;8.23;100.00
11523;BME280;40093;43.224;27.910;2023-03-03T05:12:06;100746.72;;;8.35;100.00
11523;BME280;40093;43.224;27.910;2023-03-03T05:14:33;100742.50;;;8.38;100.00
11523;BME280;40093;43.224;27.910;2023-03-03T05:17:01;100744.59;;;8.44;100.00
11523;BME280;40093;43.224;27.910;2023-03-03T05:19:30;100737.44;;;8.40;100.00
11523;BME280;40093;43.224;27.910;2023-03-03T05:21:59;100733.25;;;8.46;100.00
11523;BME280;40093;43.224;27.910;2023-03-03T05:24:26;100743.13;;;8.47;100.00
11523;BME280;40093;43.224;27.910;2023-03-03T05:26:54;100740.81;;;8.49;100.00
11523;BME280;40093;43.224;27.910;2023-03-03T05:29:21;100743.25;;;8.54;100.00
11523;BME280;40093;43.224;27.910;2023-03-03T05:31:47;100755.13;;;8.58;100.00
11523;BME280;40093;43.224;27.910;2023-03-03T05:34:15;100750.19;;;8.48;100.00
11523;BME280;40093;43.224;27.910;2023-03-03T05:36:43;100747.34;;;8.44;100.00
11523;BME280;40093;43.224;27.910;2023-03-03T05:39:10;100749.47;;;8.51;100.00
11523;BME280;40093;43.224;27.910;2023-03-03T05:41:37;100752.66;;;8.53;100.00
11523;BME280;40093;43.224;27.910;2023-03-03T05:44:04;100748.66;;;8.50;100.00
11523;BME280;40093;43.224;27.910;2023-03-03T05:46:30;100750.19;;;8.48;100.00
11523;BME280;40093;43.224;27.910;2023-03-03T05:48:57;100758.84;;;8.50;100.00
11523;BME280;40093;43.224;27.910;2023-03-03T05:51:24;100752.56;;;8.49;100.00
11523;BME280;40093;43.224;27.910;2023-03-03T05:53:52;100761.16;;;8.48;100.00
11523;BME280;40093;43.224;27.910;2023-03-03T05:56:19;100763.34;;;8.58;100.00
11523;BME280;40093;43.224;27.910;2023-03-03T05:58:46;100758.31;;;8.60;99.62
11523;BME280;40093;43.224;27.910;2023-03-03T06:01:13;100753.59;;;8.60;98.95
11523;BME280;40093;43.224;27.910;2023-03-03T06:03:40;100755.28;;;8.65;99.23
11523;BME280;40093;43.224;27.910;2023-03-03T06:06:07;100750.94;;;8.64;98.97
11523;BME280;40093;43.224;27.910;2023-03-03T06:08:34;100759.34;;;8.71;98.60
11523;BME280;40093;43.224;27.910;2023-03-03T06:11:03;100742.97;;;8.74;98.50
11523;BME280;40093;43.224;27.910;2023-03-03T06:13:30;100743.03;;;8.78;98.20
11523;BME280;40093;43.224;27.910;2023-03-03T06:15:57;100744.66;;;8.79;97.73
11523;BME280;40093;43.224;27.910;2023-03-03T06:18:24;100749.84;;;8.84;96.92
11523;BME280;40093;43.224;27.910;2023-03-03T06:20:51;100749.41;;;8.82;96.88
11523;BME280;40093;43.224;27.910;2023-03-03T06:23:18;100755.03;;;8.89;96.90
11523;BME280;40093;43.224;27.910;2023-03-03T06:25:45;100739.91;;;8.95;96.67
11523;BME280;40093;43.224;27.910;2023-03-03T06:28:14;100749.88;;;9.03;96.11
11523;BME280;40093;43.224;27.910;2023-03-03T06:30:41;100756.97;;;9.04;95.64
11523;BME280;40093;43.224;27.910;2023-03-03T06:33:07;100753.91;;;9.09;95.21
11523;BME280;40093;43.224;27.910;2023-03-03T06:35:34;100762.88;;;9.06;94.83
11523;BME280;40093;43.224;27.910;2023-03-03T06:38:01;100750.53;;;8.96;94.92
11523;BME280;40093;43.224;27.910;2023-03-03T06:40:28;100757.34;;;8.87;95.19
11523;BME280;40093;43.224;27.910;2023-03-03T06:42:55;100756.72;;;8.93;95.31
11523;BME280;40093;43.224;27.910;2023-03-03T06:45:23;100754.47;;;8.99;94.45
11523;BME280;40093;43.224;27.910;2023-03-03T06:47:50;100765.53;;;9.02;93.23
11523;BME280;40093;43.224;27.910;2023-03-03T06:50:19;100764.75;;;9.02;92.86
11523;BME280;40093;43.224;27.910;2023-03-03T06:52:46;100762.44;;;9.04;92.09
11523;BME280;40093;43.224;27.910;2023-03-03T06:55:17;100760.13;;;9.06;91.50
11523;BME280;40093;43.224;27.910;2023-03-03T06:57:46;100758.25;;;9.10;90.99
11523;BME280;40093;43.224;27.910;2023-03-03T07:00:16;100759.50;;;9.12;90.38
11523;BME280;40093;43.224;27.910;2023-03-03T07:02:46;100750.91;;;9.14;89.96
11523;BME280;40093;43.224;27.910;2023-03-03T07:05:15;100762.00;;;9.21;89.81
11523;BME280;40093;43.224;27.910;2023-03-03T07:07:43;100759.72;;;9.23;89.79
11523;BME280;40093;43.224;27.910;2023-03-03T07:10:19;100755.81;;;9.24;90.11
11523;BME280;40093;43.224;27.910;2023-03-03T07:12:48;100761.91;;;9.33;89.97
11523;BME280;40093;43.224;27.910;2023-03-03T07:15:16;100749.59;;;9.27;90.01
11523;BME280;40093;43.224;27.910;2023-03-03T07:17:48;100755.34;;;9.37;89.64
11523;BME280;40093;43.224;27.910;2023-03-03T07:20:19;100746.88;;;9.46;89.22
11523;BME280;40093;43.224;27.910;2023-03-03T07:22:46;100750.84;;;9.48;88.11
11523;BME280;40093;43.224;27.910;2023-03-03T07:25:27;100749.88;;;9.41;88.03
11523;BME280;40093;43.224;27.910;2023-03-03T07:27:57;100751.47;;;9.42;86.59
11523;BME280;40093;43.224;27.910;2023-03-03T07:30:27;100744.69;;;9.36;86.78
11523;BME280;40093;43.224;27.910;2023-03-03T07:32:57;100746.53;;;8.94;88.72
11523;BME280;40093;43.224;27.910;2023-03-03T07:35:37;100740.69;;;9.14;89.25
11523;BME280;40093;43.224;27.910;2023-03-03T07:38:16;100738.63;;;9.27;87.98
11523;BME280;40093;43.224;27.910;2023-03-03T07:40:47;100744.97;;;9.31;87.73
11523;BME280;40093;43.224;27.910;2023-03-03T07:43:28;100739.78;;;9.45;87.48
11523;BME280;40093;43.224;27.910;2023-03-03T07:45:59;100734.47;;;9.55;85.67
11523;BME280;40093;43.224;27.910;2023-03-03T07:48:34;100737.03;;;9.45;85.25
11523;BME280;40093;43.224;27.910;2023-03-03T07:51:05;100738.47;;;9.58;85.13
11523;BME280;40093;43.224;27.910;2023-03-03T07:53:37;100734.81;;;9.73;85.28
11523;BME280;40093;43.224;27.910;2023-03-03T07:56:14;100698.66;;;9.71;84.49
11523;BME280;40093;43.224;27.910;2023-03-03T07:58:42;100727.41;;;9.95;82.43
11523;BME280;40093;43.224;27.910;2023-03-03T08:04:31;100726.53;;;9.91;80.66
11523;BME280;40093;43.224;27.910;2023-03-03T08:07:10;100722.03;;;10.02;80.76
11523;BME280;40093;43.224;27.910;2023-03-03T08:09:46;100728.94;;;10.15;80.37
11523;BME280;40093;43.224;27.910;2023-03-03T08:12:37;100731.06;;;10.25;79.73
11523;BME280;40093;43.224;27.910;2023-03-03T08:15:30;100713.66;;;10.40;79.52
11523;BME280;40093;43.224;27.910;2023-03-03T08:17:59;100718.09;;;10.48;78.78
11523;BME280;40093;43.224;27.910;2023-03-03T08:20:57;100715.16;;;10.60;78.12
11523;BME280;40093;43.224;27.910;2023-03-03T08:23:24;100711.13;;;10.54;77.72
11523;BME280;40093;43.224;27.910;2023-03-03T08:25:52;100716.22;;;10.30;77.75
11523;BME280;40093;43.224;27.910;2023-03-03T08:28:19;100719.25;;;10.21;78.37
11523;BME280;40093;43.224;27.910;2023-03-03T08:30:47;100706.25;;;10.44;78.53
11523;BME280;40093;43.224;27.910;2023-03-03T08:33:14;100711.31;;;10.68;78.63
11523;BME280;40093;43.224;27.910;2023-03-03T08:35:41;100713.13;;;10.83;78.00
11523;BME280;40093;43.224;27.910;2023-03-03T08:38:11;100713.34;;;11.01;75.45
11523;BME280;40093;43.224;27.910;2023-03-03T08:40:38;100709.59;;;11.16;74.13
11523;BME280;40093;43.224;27.910;2023-03-03T08:43:05;100708.50;;;11.20;74.08
11523;BME280;40093;43.224;27.910;2023-03-03T08:45:32;100714.38;;;10.89;77.53
11523;BME280;40093;43.224;27.910;2023-03-03T08:47:59;100719.88;;;10.89;78.60
11523;BME280;40093;43.224;27.910;2023-03-03T08:50:28;100714.81;;;10.91;79.19
11523;BME280;40093;43.224;27.910;2023-03-03T08:52:55;100721.28;;;10.76;78.81
11523;BME280;40093;43.224;27.910;2023-03-03T08:55:24;100729.47;;;10.73;78.65
11523;BME280;40093;43.224;27.910;2023-03-03T08:57:50;100729.63;;;10.83;78.78
11523;BME280;40093;43.224;27.910;2023-03-03T09:00:18;100721.28;;;10.76;79.07
11523;BME280;40093;43.224;27.910;2023-03-03T09:02:45;100724.47;;;10.52;80.43
11523;BME280;40093;43.224;27.910;2023-03-03T09:05:13;100722.59;;;10.60;80.63
11523;BME280;40093;43.224;27.910;2023-03-03T09:07:40;100725.56;;;10.74;80.38
11523;BME280;40093;43.224;27.910;2023-03-03T09:10:09;100717.56;;;10.91;79.84
11523;BME280;40093;43.224;27.910;2023-03-03T09:12:40;100712.38;;;10.86;79.53
11523;BME280;40093;43.224;27.910;2023-03-03T09:15:15;100711.91;;;11.10;79.02
11523;BME280;40093;43.224;27.910;2023-03-03T09:17:44;100695.06;;;10.86;78.30
11523;BME280;40093;43.224;27.910;2023-03-03T09:20:22;100710.25;;;11.02;79.06
11523;BME280;40093;43.224;27.910;2023-03-03T09:22:49;100709.06;;;11.03;77.82
11523;BME280;40093;43.224;27.910;2023-03-03T09:25:22;100703.97;;;11.05;77.23
11523;BME280;40093;43.224;27.910;2023-03-03T09:27:54;100696.97;;;11.11;77.52
11523;BME280;40093;43.224;27.910;2023-03-03T09:30:43;100698.31;;;11.24;76.75
11523;BME280;40093;43.224;27.910;2023-03-03T09:33:24;100688.47;;;11.23;76.10
11523;BME280;40093;43.224;27.910;2023-03-03T09:35:52;100690.22;;;11.38;75.93
11523;BME280;40093;43.224;27.910;2023-03-03T09:38:26;100684.13;;;11.55;75.14
11523;BME280;40093;43.224;27.910;2023-03-03T09:43:55;100692.03;;;11.57;73.43
11523;BME280;40093;43.224;27.910;2023-03-03T09:46:31;100683.88;;;11.71;73.39
11523;BME280;40093;43.224;27.910;2023-03-03T09:49:13;100680.81;;;11.76;72.52
11523;BME280;40093;43.224;27.910;2023-03-03T09:51:58;100674.03;;;11.66;72.09
11523;BME280;40093;43.224;27.910;2023-03-03T09:54:46;100672.41;;;11.62;72.72
11523;BME280;40093;43.224;27.910;2023-03-03T09:57:16;100667.63;;;11.59;72.41
11523;BME280;40093;43.224;27.910;2023-03-03T09:59:58;100665.16;;;11.50;72.59
11523;BME280;40093;43.224;27.910;2023-03-03T10:02:41;100657.78;;;11.58;72.89
11523;BME280;40093;43.224;27.910;2023-03-03T10:05:18;100652.72;;;11.63;73.58
11523;BME280;40093;43.224;27.910;2023-03-03T10:08:01;100659.06;;;11.67;72.70
11523;BME280;40093;43.224;27.910;2023-03-03T10:10:47;100642.94;;;11.69;72.17
11523;BME280;40093;43.224;27.910;2023-03-03T10:13:25;100646.06;;;11.68;72.62
11523;BME280;40093;43.224;27.910;2023-03-03T10:16:12;100645.72;;;11.73;73.48
11523;BME280;40093;43.224;27.910;2023-03-03T10:18:46;100636.78;;;11.86;72.70
11523;BME280;40093;43.224;27.910;2023-03-03T10:21:22;100635.75;;;11.61;72.80
11523;BME280;40093;43.224;27.910;2023-03-03T10:23:55;100635.03;;;11.68;73.13
11523;BME280;40093;43.224;27.910;2023-03-03T10:26:41;100625.28;;;11.77;72.82
11523;BME280;40093;43.224;27.910;2023-03-03T10:29:22;100626.91;;;11.85;72.48
11523;BME280;40093;43.224;27.910;2023-03-03T10:32:14;100626.94;;;11.89;71.61
11523;BME280;40093;43.224;27.910;2023-03-03T10:35:17;100625.75;;;11.83;72.23
11523;BME280;40093;43.224;27.910;2023-03-03T10:37:59;100620.22;;;11.83;72.51
11523;BME280;40093;43.224;27.910;2023-03-03T10:40:34;100613.50;;;11.80;72.11
11523;BME280;40093;43.224;27.910;2023-03-03T10:43:31;100625.22;;;11.70;73.02
11523;BME280;40093;43.224;27.910;2023-03-03T10:46:18;100617.28;;;11.65;72.42
11523;BME280;40093;43.224;27.910;2023-03-03T10:49:01;100606.22;;;11.58;73.38
11523;BME280;40093;43.224;27.910;2023-03-03T10:51:37;100614.88;;;11.60;73.35
11523;BME280;40093;43.224;27.910;2023-03-03T10:54:25;100614.16;;;11.67;73.50
11523;BME280;40093;43.224;27.910;2023-03-03T10:57:00;100610.25;;;11.71;72.79
11523;BME280;40093;43.224;27.910;2023-03-03T10:59:53;100603.94;;;11.71;73.58
11523;BME280;40093;43.224;27.910;2023-03-03T11:02:25;100597.59;;;11.63;73.13
11523;BME280;40093;43.224;27.910;2023-03-03T11:05:08;100600.75;;;11.65;72.88
11523;BME280;40093;43.224;27.910;2023-03-03T11:07:42;100589.78;;;11.72;73.13
11523;BME280;40093;43.224;27.910;2023-03-03T11:10:20;100587.81;;;11.69;73.61
11523;BME280;40093;43.224;27.910;2023-03-03T11:12:53;100567.69;;;11.69;74.50
11523;BME280;40093;43.224;27.910;2023-03-03T11:15:32;100571.56;;;11.57;73.09
11523;BME280;40093;43.224;27.910;2023-03-03T11:18:10;100564.13;;;11.65;72.85
11523;BME280;40093;43.224;27.910;2023-03-03T11:20:45;100553.88;;;11.65;72.48
11523;BME280;40093;43.224;27.910;2023-03-03T11:23:49;100551.91;;;11.62;72.29
11523;BME280;40093;43.224;27.910;2023-03-03T11:26:30;100540.72;;;11.48;73.80
11523;BME280;40093;43.224;27.910;2023-03-03T11:29:11;100542.19;;;11.35;74.19
11523;BME280;40093;43.224;27.910;2023-03-03T11:31:46;100542.47;;;11.23;75.18
11523;BME280;40093;43.224;27.910;2023-03-03T11:34:22;100547.47;;;11.11;75.96
11523;BME280;40093;43.224;27.910;2023-03-03T11:37:00;100542.03;;;11.18;76.73
11523;BME280;40093;43.224;27.910;2023-03-03T11:39:29;100532.47;;;11.08;76.10
11523;BME280;40093;43.224;27.910;2023-03-03T11:42:07;100537.16;;;11.04;76.46
11523;BME280;40093;43.224;27.910;2023-03-03T11:44:44;100533.28;;;11.12;76.69
11523;BME280;40093;43.224;27.910;2023-03-03T11:47:17;100535.34;;;11.22;75.45
11523;BME280;40093;43.224;27.910;2023-03-03T11:49:50;100519.38;;;11.38;74.83
11523;BME280;40093;43.224;27.910;2023-03-03T11:52:29;100520.63;;;11.48;74.18
11523;BME280;40093;43.224;27.910;2023-03-03T11:55:03;100517.09;;;11.47;73.56
11523;BME280;40093;43.224;27.910;2023-03-03T11:57:37;100516.03;;;11.59;74.59
11523;BME280;40093;43.224;27.910;2023-03-03T12:00:25;100524.34;;;11.62;74.73
11523;BME280;40093;43.224;27.910;2023-03-03T12:03:23;100520.25;;;11.49;74.83
11523;BME280;40093;43.224;27.910;2023-03-03T12:05:55;100525.88;;;11.16;75.47
11523;BME280;40093;43.224;27.910;2023-03-03T12:08:56;100529.19;;;10.92;76.70
11523;BME280;40093;43.224;27.910;2023-03-03T12:11:27;100518.25;;;10.66;77.60
11523;BME280;40093;43.224;27.910;2023-03-03T12:14:01;100517.44;;;10.62;79.27
11523;BME280;40093;43.224;27.910;2023-03-03T12:16:41;100521.75;;;10.63;79.24
11523;BME280;40093;43.224;27.910;2023-03-03T12:19:38;100512.34;;;10.64;78.88
11523;BME280;40093;43.224;27.910;2023-03-03T12:22:27;100509.75;;;10.45;77.87
11523;BME280;40093;43.224;27.910;2023-03-03T12:25:22;100515.66;;;10.47;80.30
11523;BME280;40093;43.224;27.910;2023-03-03T12:27:55;100512.88;;;10.44;81.22
11523;BME280;40093;43.224;27.910;2023-03-03T12:30:32;100515.25;;;10.45;82.59
11523;BME280;40093;43.224;27.910;2023-03-03T12:33:12;100514.50;;;10.48;83.11
11523;BME280;40093;43.224;27.910;2023-03-03T12:35:50;100508.31;;;10.55;83.27
11523;BME280;40093;43.224;27.910;2023-03-03T12:38:28;100517.72;;;10.54;82.68
11523;BME280;40093;43.224;27.910;2023-03-03T12:41:06;100511.50;;;10.27;82.31
11523;BME280;40093;43.224;27.910;2023-03-03T12:43:46;100520.88;;;10.26;83.86
11523;BME280;40093;43.224;27.910;2023-03-03T12:46:19;100519.34;;;10.29;82.47
11523;BME280;40093;43.224;27.910;2023-03-03T12:48:49;100513.44;;;10.27;81.83
11523;BME280;40093;43.224;27.910;2023-03-03T12:51:29;100514.31;;;10.34;83.10
11523;BME280;40093;43.224;27.910;2023-03-03T12:54:20;100526.19;;;10.38;82.59
11523;BME280;40093;43.224;27.910;2023-03-03T12:56:55;100515.91;;;10.35;81.88
11523;BME280;40093;43.224;27.910;2023-03-03T12:59:34;100523.38;;;10.35;82.46
11523;BME280;40093;43.224;27.910;2023-03-03T13:02:25;100518.19;;;10.30;82.87
11523;BME280;40093;43.224;27.910;2023-03-03T13:05:03;100516.88;;;9.94;84.38
11523;BME280;40093;43.224;27.910;2023-03-03T13:07:40;100523.03;;;10.10;82.96
11523;BME280;40093;43.224;27.910;2023-03-03T13:10:17;100511.63;;;10.08;83.26
11523;BME280;40093;43.224;27.910;2023-03-03T13:12:51;100514.25;;;10.01;85.32
11523;BME280;40093;43.224;27.910;2023-03-03T13:15:22;100516.38;;;10.11;83.71